Nelson, NE (68961)

9:27 PM CDT on September 01, 2015 (GMT -0500)
Ne Nelson | | Change Station
CLOSE
Current Station
Personal Weather Station
Location: Nelson, NE
Elevation: 1709 ft
Nearby Weather Stations

Elev 1709 ft 40.21 °N, 98.06 °W | Updated 7 minutes ago

Partly Cloudy
Partly Cloudy
80.4 °F
Feels Like 82 °F
N
9.4
Wind Variable Wind from WNW

Today
High -- | Low -- °F
--% Chance of Precip.
Yesterday
High -- | Low -- °F
Precip. -- in
6:59 AM 8:04 PM
Waning Gibbous, 84% visible
Pressure 29.90 in
Visibility 10.0 miles
Clouds Clear
Heat Index 82 °F
Dew Point 66 °F
Humidity 61%
Rainfall 0.00 in
Snow Depth Not available.
UV 0 out of 12
Pollen 11.20 out of 12
Air Quality Not available.
Flu Activity Not available.
METAR KHJH 020215Z AUTO 16012G18KT 10SM CLR 28/16 A2990 RMK AO2 T02800162
Pressure 29.90 in
Visibility 10.0 miles
Clouds Clear
Heat Index 82 °F
Dew Point 66 °F
Humidity 61%
Rainfall 0.00 in
Snow Depth Not available.
UV 0 out of 12
Pollen 11.20 out of 12
Air Quality Not available.
Flu Activity Not available.
METAR KHJH 020215Z AUTO 16012G18KT 10SM CLR 28/16 A2990 RMK AO2 T02800162

10-Day Weather Forecast

×

Almanac

Astronomy

Sep. 01, 2015 Rise Set
Actual Time
Civil Twilight
Nautical Twilight
Astronomical Twilight
Moon
Length of Visible Light
Length of Day
Tomorrow will be .
, % of the Moon is Illuminated

Today's Extremes

State Highs State Lows

Community

WunderPhotos

Upload Photos

1,851,679 photos uploaded!

WunderBlogs® & News

Nearby

Air Quality

  Air Quality AQ Index Pollutant
Not available.

Snow Depth

Station Depth Elevation

Earthquake Activity

City Distance Mag. Time & Date
Minimum magnitude displayed is 2.5.

Coastal Water Temperatures

Place Temperature

Stations

Nearby Weather Stations

Station Location Temp. Windchill Dew Point Humidity Wind Precip. Elev Updated Type